createdAt,value
2023-02-01T00:02:47.211Z,4.52
2023-02-01T00:05:56.865Z,4.57
2023-02-01T00:08:58.572Z,4.58
2023-02-01T00:12:02.719Z,4.52
2023-02-01T00:15:07.028Z,4.55
2023-02-01T00:18:08.723Z,4.49
2023-02-01T00:21:11.176Z,4.48
2023-02-01T00:24:13.324Z,4.42
2023-02-01T00:27:18.600Z,4.40
2023-02-01T00:30:21.738Z,4.39
2023-02-01T00:33:23.699Z,4.42
2023-02-01T00:36:25.454Z,4.43
2023-02-01T00:39:27.163Z,4.44
2023-02-01T00:42:28.910Z,4.46
2023-02-01T00:45:32.423Z,4.53
2023-02-01T00:48:54.791Z,4.59
2023-02-01T00:51:56.569Z,4.63
2023-02-01T00:54:58.828Z,4.66
2023-02-01T00:58:00.813Z,4.65
2023-02-01T01:01:06.618Z,4.70
2023-02-01T01:04:09.360Z,4.72
2023-02-01T01:07:11.168Z,4.74
2023-02-01T01:10:12.818Z,4.80
2023-02-01T01:13:14.529Z,4.77
2023-02-01T01:16:18.670Z,4.76
2023-02-01T01:19:20.434Z,4.77
2023-02-01T01:22:22.174Z,4.78
2023-02-01T01:25:23.966Z,4.82
2023-02-01T01:28:25.674Z,4.77
2023-02-01T01:31:29.218Z,4.81
2023-02-01T01:34:30.942Z,4.86
2023-02-01T01:37:33.097Z,4.88
2023-02-01T01:40:34.715Z,4.87
2023-02-01T01:43:58.227Z,4.85
2023-02-01T01:47:03.145Z,4.81
2023-02-01T01:50:07.948Z,4.81
2023-02-01T01:53:42.344Z,4.75
2023-02-01T01:56:47.471Z,4.74
2023-02-01T01:59:54.062Z,4.81
2023-02-01T02:03:04.357Z,4.79
2023-02-01T02:06:16.232Z,4.77
2023-02-01T02:09:18.323Z,4.92
2023-02-01T02:12:20.047Z,4.86
2023-02-01T02:15:21.955Z,4.85
2023-02-01T02:18:33.794Z,4.96
2023-02-01T02:21:53.005Z,5.01
2023-02-01T02:25:13.519Z,4.97
2023-02-01T02:28:36.421Z,4.90
2023-02-01T02:31:55.931Z,4.91
2023-02-01T02:35:07.815Z,4.92
2023-02-01T02:38:19.099Z,4.94
2023-02-01T02:41:48.048Z,4.88
2023-02-01T02:45:14.029Z,4.91
2023-02-01T02:48:21.815Z,4.94
2023-02-01T02:51:47.391Z,4.86
2023-02-01T02:54:52.948Z,4.85
2023-02-01T02:58:16.016Z,4.83
2023-02-01T03:01:36.542Z,4.82
2023-02-01T03:04:38.672Z,4.81
2023-02-01T03:08:05.618Z,4.79
2023-02-01T03:11:10.311Z,4.82
2023-02-01T03:14:15.037Z,4.85
2023-02-01T03:17:23.083Z,4.82
2023-02-01T03:20:26.036Z,4.82
2023-02-01T03:23:32.134Z,4.81
2023-02-01T03:26:39.717Z,4.80
2023-02-01T03:29:50.325Z,4.73
2023-02-01T03:33:02.912Z,4.68
2023-02-01T03:36:23.769Z,4.68
2023-02-01T03:39:33.900Z,4.65
2023-02-01T03:42:39.630Z,4.60
2023-02-01T03:45:44.394Z,4.61
2023-02-01T03:48:46.778Z,4.57
2023-02-01T03:51:49.792Z,4.60
2023-02-01T03:54:53.913Z,4.59
2023-02-01T03:57:59.791Z,4.55
2023-02-01T04:01:02.313Z,4.54
2023-02-01T04:04:07.931Z,4.53
2023-02-01T04:07:10.011Z,4.51
2023-02-01T04:10:13.297Z,4.49
2023-02-01T04:13:15.018Z,4.50
2023-02-01T04:16:16.860Z,4.33
2023-02-01T04:19:18.660Z,4.36
2023-02-01T04:22:20.409Z,4.30
2023-02-01T04:25:23.521Z,4.32
2023-02-01T04:28:25.222Z,4.31
2023-02-01T04:31:47.331Z,4.30
2023-02-01T04:34:49.145Z,4.33
2023-02-01T04:37:50.809Z,4.33
2023-02-01T04:40:53.804Z,4.37
2023-02-01T04:43:55.461Z,4.39
2023-02-01T04:46:57.054Z,4.41
2023-02-01T04:49:58.765Z,4.40
2023-02-01T04:53:00.531Z,4.45
2023-02-01T04:56:03.828Z,4.45
2023-02-01T04:59:05.812Z,4.45
2023-02-01T05:02:07.694Z,4.44
2023-02-01T05:05:09.941Z,4.44
2023-02-01T05:08:11.707Z,4.47
2023-02-01T05:11:34.293Z,4.45
2023-02-01T05:14:36.139Z,4.70
2023-02-01T05:17:37.811Z,4.70
2023-02-01T05:20:39.894Z,4.78
2023-02-01T05:24:00.561Z,4.70
2023-02-01T05:27:03.800Z,4.72
2023-02-01T05:30:07.489Z,4.82
2023-02-01T05:33:09.222Z,4.80
2023-02-01T05:36:10.888Z,4.74
2023-02-01T05:39:12.996Z,4.73
2023-02-01T05:42:16.285Z,4.73
2023-02-01T05:45:18.129Z,4.66
2023-02-01T05:48:19.790Z,4.63
2023-02-01T05:51:21.493Z,4.64
2023-02-01T05:54:23.168Z,4.62
2023-02-01T05:57:26.236Z,4.65
2023-02-01T06:00:28.149Z,4.62
2023-02-01T06:03:30.867Z,4.59
2023-02-01T06:06:32.832Z,4.60
2023-02-01T06:09:34.772Z,4.64
2023-02-01T06:12:38.140Z,4.69
2023-02-01T06:15:39.933Z,4.68
2023-02-01T06:18:42.343Z,4.64
2023-02-01T06:21:44.151Z,4.66
2023-02-01T06:24:45.895Z,4.67
2023-02-01T06:28:09.174Z,4.60
2023-02-01T06:31:10.978Z,4.57
2023-02-01T06:34:12.824Z,4.56
2023-02-01T06:37:14.956Z,4.55
2023-02-01T06:40:16.911Z,4.59
2023-02-01T06:43:19.905Z,4.61
2023-02-01T06:46:21.596Z,4.62
2023-02-01T06:49:23.388Z,4.65
2023-02-01T06:52:25.107Z,4.70
2023-02-01T06:55:26.773Z,4.67
2023-02-01T06:58:31.867Z,4.64
2023-02-01T07:01:34.177Z,4.62
2023-02-01T07:04:35.882Z,4.61
2023-02-01T07:07:37.671Z,4.63
2023-02-01T07:10:39.641Z,4.60
2023-02-01T07:13:42.891Z,4.59
2023-02-01T07:16:44.724Z,5.08
2023-02-01T07:19:46.408Z,4.83
2023-02-01T07:22:48.103Z,4.72
2023-02-01T07:25:50.095Z,4.70
2023-02-01T07:28:53.414Z,4.61
2023-02-01T07:31:55.499Z,4.35
2023-02-01T07:34:57.744Z,4.27
2023-02-01T07:37:59.778Z,4.30
2023-02-01T07:41:03.560Z,4.27
2023-02-01T07:44:06.737Z,4.26
2023-02-01T07:47:08.461Z,4.27
2023-02-01T07:50:10.878Z,4.19
2023-02-01T07:53:12.900Z,4.27
2023-02-01T07:56:16.429Z,4.31
2023-02-01T07:59:19.799Z,4.30
2023-02-01T08:02:21.526Z,4.29
2023-02-01T08:05:23.225Z,4.32
2023-02-01T08:08:25.040Z,4.30
2023-02-01T08:11:27.961Z,4.32
2023-02-01T08:14:30.922Z,4.41
2023-02-01T08:17:32.736Z,4.48
2023-02-01T08:20:37.070Z,4.52
2023-02-01T08:23:40.851Z,4.48
2023-02-01T08:26:42.564Z,4.43
2023-02-01T08:29:45.631Z,4.46
2023-02-01T08:32:47.361Z,4.48
2023-02-01T08:35:49.545Z,4.47
2023-02-01T08:38:51.935Z,4.54
2023-02-01T08:42:12.347Z,4.54
2023-02-01T08:45:15.700Z,4.58
2023-02-01T08:48:17.603Z,4.68
2023-02-01T08:51:21.645Z,4.88
2023-02-01T08:54:23.383Z,4.99
2023-02-01T08:57:25.371Z,5.03
2023-02-01T09:00:28.344Z,5.12
2023-02-01T09:03:30.009Z,5.20
2023-02-01T09:06:31.745Z,5.18
2023-02-01T09:09:33.667Z,5.21
2023-02-01T09:12:36.531Z,5.21
2023-02-01T09:15:39.694Z,5.36
2023-02-01T09:18:50.656Z,5.30
2023-02-01T09:21:58.245Z,5.28
2023-02-01T09:25:04.805Z,5.36
2023-02-01T09:28:10.290Z,5.48
2023-02-01T09:31:15.322Z,5.49
2023-02-01T09:34:17.176Z,5.50
2023-02-01T09:37:19.773Z,5.66
2023-02-01T09:40:23.163Z,5.63
2023-02-01T09:43:40.854Z,5.62
2023-02-01T09:46:46.778Z,5.67
2023-02-01T09:49:55.878Z,5.72
2023-02-01T09:53:02.506Z,5.85
2023-02-01T09:56:13.355Z,5.95
2023-02-01T09:59:27.330Z,5.95
2023-02-01T10:02:33.690Z,5.83
2023-02-01T10:06:18.432Z,5.90
2023-02-01T10:09:51.596Z,6.00
2023-02-01T10:13:35.271Z,6.10
2023-02-01T10:17:04.893Z,5.89
2023-02-01T10:20:30.993Z,6.15
2023-02-01T10:24:18.391Z,6.14
2023-02-01T10:27:42.732Z,5.97
2023-02-01T10:31:03.342Z,6.11
2023-02-01T10:34:27.956Z,6.07
2023-02-01T10:37:51.032Z,6.16
2023-02-01T10:41:15.048Z,6.14
2023-02-01T10:44:44.093Z,6.27
2023-02-01T10:50:58.519Z,6.09
2023-02-01T10:54:06.026Z,6.29
2023-02-01T10:57:09.829Z,6.29
2023-02-01T11:00:20.894Z,6.28
2023-02-01T11:03:31.459Z,6.52
2023-02-01T11:10:02.839Z,6.35
2023-02-01T11:13:05.782Z,6.58
2023-02-01T11:16:11.888Z,6.64
2023-02-01T11:19:16.776Z,6.51
2023-02-01T11:22:19.943Z,6.67
2023-02-01T11:25:23.722Z,6.73
2023-02-01T11:28:29.930Z,6.63
2023-02-01T11:31:34.961Z,6.61
2023-02-01T11:34:38.637Z,6.52
2023-02-01T11:37:44.458Z,6.55
2023-02-01T11:40:46.405Z,6.76
2023-02-01T11:43:53.880Z,6.91
2023-02-01T11:46:58.199Z,6.87
2023-02-01T11:50:02.217Z,6.85
2023-02-01T11:53:21.109Z,6.85
2023-02-01T11:56:31.410Z,6.88
2023-02-01T11:59:56.803Z,6.93
2023-02-01T12:03:14.777Z,6.80
2023-02-01T12:06:25.343Z,6.76
2023-02-01T12:09:49.024Z,6.71
2023-02-01T12:13:02.579Z,6.70
2023-02-01T12:16:18.935Z,6.49
2023-02-01T12:19:46.032Z,6.60
2023-02-01T12:22:58.236Z,6.62
2023-02-01T12:26:34.431Z,6.59
2023-02-01T12:29:48.920Z,6.63
2023-02-01T12:33:03.592Z,6.50
2023-02-01T12:36:14.862Z,6.63
2023-02-01T12:39:24.310Z,6.63
2023-02-01T12:42:32.363Z,6.61
2023-02-01T12:45:44.002Z,6.52
2023-02-01T12:48:56.050Z,6.46
2023-02-01T12:52:02.812Z,6.54
2023-02-01T12:55:15.247Z,6.45
2023-02-01T12:58:22.396Z,6.44
2023-02-01T13:01:31.636Z,6.54
2023-02-01T13:04:40.386Z,6.67
2023-02-01T13:07:46.831Z,6.74
2023-02-01T13:11:04.220Z,6.72
2023-02-01T13:14:18.277Z,6.78
2023-02-01T13:17:25.679Z,6.79
2023-02-01T13:20:35.555Z,6.76
2023-02-01T13:23:39.518Z,6.76
2023-02-01T13:26:41.368Z,6.68
2023-02-01T13:29:53.224Z,6.71
2023-02-01T13:33:53.886Z,6.57
2023-02-01T13:37:00.913Z,6.61
2023-02-01T13:40:19.265Z,6.52
2023-02-01T13:43:30.266Z,6.55
2023-02-01T13:46:40.482Z,6.60
2023-02-01T13:49:42.314Z,6.61
2023-02-01T13:52:46.629Z,6.60
2023-02-01T13:55:57.623Z,6.57
2023-02-01T13:59:34.489Z,6.46
2023-02-01T14:03:16.867Z,6.46
2023-02-01T14:06:42.772Z,6.51
2023-02-01T14:09:44.536Z,6.59
2023-02-01T14:12:49.132Z,6.57
2023-02-01T14:16:14.114Z,6.62
2023-02-01T14:19:22.659Z,6.58
2023-02-01T14:22:35.802Z,6.62
2023-02-01T14:25:38.489Z,6.60
2023-02-01T14:28:45.684Z,6.57
2023-02-01T14:32:03.619Z,6.62
2023-02-01T14:35:08.877Z,6.61
2023-02-01T14:38:12.257Z,6.59
2023-02-01T14:41:32.010Z,6.63
2023-02-01T14:44:40.449Z,6.55
2023-02-01T14:48:34.963Z,6.58
2023-02-01T14:51:37.760Z,6.56
2023-02-01T14:54:41.805Z,6.59
2023-02-01T14:57:45.170Z,6.62
2023-02-01T15:00:51.228Z,6.65
2023-02-01T15:04:01.419Z,6.59
2023-02-01T15:07:12.114Z,6.66
2023-02-01T15:10:16.400Z,6.55
2023-02-01T15:13:22.843Z,6.69
2023-02-01T15:16:27.129Z,6.69
2023-02-01T15:19:31.655Z,6.74
2023-02-01T15:22:33.500Z,6.73
2023-02-01T15:25:39.675Z,6.83
2023-02-01T15:28:41.547Z,6.86
2023-02-01T15:31:46.473Z,6.91
2023-02-01T15:34:50.188Z,6.89
2023-02-01T15:37:53.081Z,6.85
2023-02-01T15:41:00.124Z,6.86
2023-02-01T15:49:41.501Z,7.02
2023-02-01T15:52:43.441Z,7.06
2023-02-01T15:55:46.790Z,7.04
2023-02-01T15:58:55.720Z,7.02
2023-02-01T16:01:57.568Z,6.99
2023-02-01T16:05:01.942Z,6.91
2023-02-01T16:08:11.559Z,6.90
2023-02-01T16:11:24.452Z,6.74
2023-02-01T16:14:27.204Z,6.69
2023-02-01T16:17:29.084Z,6.72
2023-02-01T16:20:34.019Z,6.76
2023-02-01T16:23:35.835Z,6.70
2023-02-01T16:26:39.001Z,6.65
2023-02-01T16:29:42.115Z,6.65
2023-02-01T16:32:44.716Z,6.50
2023-02-01T16:35:48.174Z,6.58
2023-02-01T16:38:50.425Z,6.62
2023-02-01T16:41:52.107Z,6.58
2023-02-01T16:48:20.681Z,6.46
2023-02-01T16:51:25.644Z,6.46
2023-02-01T16:54:27.720Z,6.60
2023-02-01T16:57:30.378Z,6.65
2023-02-01T17:00:34.568Z,6.59
2023-02-01T17:03:36.827Z,6.65
2023-02-01T17:06:40.544Z,6.61
2023-02-01T17:09:42.322Z,6.64
2023-02-01T17:12:43.953Z,6.62
2023-02-01T17:15:50.510Z,6.67
2023-02-01T17:18:56.783Z,6.68
2023-02-01T17:22:00.033Z,6.59
2023-02-01T17:25:02.065Z,6.58
2023-02-01T17:28:04.096Z,6.58
2023-02-01T17:31:05.790Z,6.69
2023-02-01T17:34:07.675Z,6.67
2023-02-01T17:37:18.643Z,6.71
2023-02-01T17:40:20.509Z,6.57
2023-02-01T17:43:24.326Z,6.52
2023-02-01T17:46:27.196Z,6.52
2023-02-01T17:49:29.026Z,6.59
2023-02-01T17:52:32.077Z,6.73
2023-02-01T17:55:35.605Z,6.61
2023-02-01T17:58:37.231Z,6.58
2023-02-01T18:01:40.889Z,6.68
2023-02-01T18:04:42.550Z,6.54
2023-02-01T18:07:45.567Z,6.59
2023-02-01T18:14:13.093Z,6.51
2023-02-01T18:17:15.078Z,6.50
2023-02-01T18:20:19.023Z,6.44
2023-02-01T18:23:23.975Z,6.45
2023-02-01T18:26:25.877Z,6.55
2023-02-01T18:29:27.606Z,6.58
2023-02-01T18:32:49.642Z,6.59
2023-02-01T18:35:51.331Z,6.53
2023-02-01T18:38:56.391Z,6.45
2023-02-01T18:41:58.605Z,6.43
2023-02-01T18:45:01.276Z,6.48
2023-02-01T18:48:23.021Z,6.52
2023-02-01T18:51:24.716Z,6.45
2023-02-01T18:54:28.276Z,6.35
2023-02-01T18:57:29.977Z,6.44
2023-02-01T19:00:31.624Z,6.41
2023-02-01T19:03:33.304Z,6.35
2023-02-01T19:06:42.612Z,6.20
2023-02-01T19:09:45.592Z,6.23
2023-02-01T19:12:47.249Z,6.23
2023-02-01T19:15:49.164Z,6.22
2023-02-01T19:18:52.097Z,6.26
2023-02-01T19:21:53.869Z,6.33
2023-02-01T19:24:56.996Z,6.31
2023-02-01T19:27:58.701Z,6.31
2023-02-01T19:31:04.952Z,6.35
2023-02-01T19:34:06.728Z,6.35
2023-02-01T19:37:09.164Z,6.35
2023-02-01T19:40:15.059Z,6.39
2023-02-01T19:43:16.786Z,6.40
2023-02-01T19:46:18.616Z,6.40
2023-02-01T19:49:20.429Z,6.34
2023-02-01T19:54:09.263Z,6.33
2023-02-01T19:57:10.983Z,6.31
2023-02-01T20:00:15.330Z,6.35
2023-02-01T20:03:16.958Z,6.37
2023-02-01T20:06:19.002Z,6.29
2023-02-01T20:09:24.857Z,6.23
2023-02-01T20:12:26.652Z,6.29
2023-02-01T20:15:28.429Z,6.31
2023-02-01T20:18:31.173Z,6.30
2023-02-01T20:21:33.211Z,6.32
2023-02-01T20:24:38.663Z,6.37
2023-02-01T20:27:41.389Z,6.31
2023-02-01T20:30:44.222Z,6.34
2023-02-01T20:33:46.103Z,6.39
2023-02-01T20:36:47.903Z,6.49
2023-02-01T20:39:51.153Z,6.44
2023-02-01T20:42:52.991Z,6.45
2023-02-01T20:45:54.690Z,6.46
2023-02-01T20:48:56.610Z,6.38
2023-02-01T20:51:58.337Z,6.32
2023-02-01T20:55:01.396Z,6.34
2023-02-01T20:58:03.349Z,6.50
2023-02-01T21:01:05.983Z,6.41
2023-02-01T21:04:07.881Z,6.44
2023-02-01T21:07:09.720Z,6.42
2023-02-01T21:10:13.271Z,6.47
2023-02-01T21:13:15.454Z,6.46
2023-02-01T21:16:19.083Z,6.38
2023-02-01T21:19:22.392Z,6.50
2023-02-01T21:22:24.233Z,6.47
2023-02-01T21:25:27.317Z,6.39
2023-02-01T21:28:29.388Z,6.56
2023-02-01T21:31:31.140Z,6.59
2023-02-01T21:34:32.955Z,6.61
2023-02-01T21:37:34.839Z,6.52
2023-02-01T21:40:38.070Z,6.56
2023-02-01T21:43:39.981Z,6.68
2023-02-01T21:46:42.426Z,6.55
2023-02-01T21:49:44.653Z,6.61
2023-02-01T21:52:47.346Z,6.59
2023-02-01T21:55:50.798Z,6.60
2023-02-01T21:58:53.027Z,6.65
2023-02-01T22:01:54.780Z,6.67
2023-02-01T22:04:57.688Z,6.62
2023-02-01T22:07:59.306Z,6.70
2023-02-01T22:11:02.327Z,6.73
2023-02-01T22:14:04.027Z,6.80
2023-02-01T22:17:05.916Z,6.77
2023-02-01T22:20:08.879Z,6.81
2023-02-01T22:23:10.664Z,6.78
2023-02-01T22:26:14.880Z,6.79
2023-02-01T22:29:19.183Z,6.82
2023-02-01T22:32:20.897Z,6.82
2023-02-01T22:35:22.995Z,6.89
2023-02-01T22:38:25.478Z,6.83
2023-02-01T22:41:28.832Z,6.88
2023-02-01T22:44:30.536Z,6.87
2023-02-01T22:47:32.268Z,6.91
2023-02-01T22:50:33.996Z,6.74
2023-02-01T22:53:35.849Z,6.86
2023-02-01T22:56:39.037Z,6.92
2023-02-01T22:59:40.732Z,6.96
2023-02-01T23:02:42.688Z,6.89
2023-02-01T23:05:44.364Z,6.88
2023-02-01T23:08:46.219Z,6.88
2023-02-01T23:11:49.534Z,6.92
2023-02-01T23:15:06.379Z,6.96
2023-02-01T23:18:08.055Z,6.92
2023-02-01T23:21:11.335Z,6.93
2023-02-01T23:24:13.121Z,6.89
2023-02-01T23:27:16.977Z,6.91
2023-02-01T23:30:18.980Z,6.98
2023-02-01T23:33:22.728Z,6.97
2023-02-01T23:36:26.291Z,7.02
2023-02-01T23:39:28.440Z,7.04
2023-02-01T23:42:31.568Z,7.04
2023-02-01T23:45:33.250Z,7.02
2023-02-01T23:48:34.975Z,6.85
2023-02-01T23:51:36.887Z,6.88
2023-02-01T23:54:38.698Z,6.98
2023-02-01T23:57:41.684Z,6.98
